createdAt,value
2017-10-20T00:01:04.177Z,91.60
2017-10-20T00:03:35.895Z,91.40
2017-10-20T00:06:07.022Z,91.40
2017-10-20T00:08:37.780Z,91.50
2017-10-20T00:11:08.913Z,91.10
2017-10-20T00:13:40.037Z,90.90
2017-10-20T00:16:12.262Z,90.60
2017-10-20T00:18:43.295Z,90.60
2017-10-20T00:21:14.287Z,90.80
2017-10-20T00:23:45.212Z,90.90
2017-10-20T00:26:16.117Z,91.10
2017-10-20T00:28:47.588Z,91.50
2017-10-20T00:31:18.878Z,92.00
2017-10-20T00:33:50.295Z,92.40
2017-10-20T00:36:21.762Z,93.20
2017-10-20T00:38:52.924Z,93.60
2017-10-20T00:41:23.814Z,93.60
2017-10-20T00:43:54.901Z,93.90
2017-10-20T00:46:26.033Z,94.40
2017-10-20T00:48:57.269Z,94.10
2017-10-20T00:51:28.208Z,93.90
2017-10-20T00:54:00.454Z,94.30
2017-10-20T00:56:31.451Z,94.20
2017-10-20T00:59:02.375Z,93.80
2017-10-20T01:01:32.765Z,94.40
2017-10-20T01:04:04.094Z,94.80
2017-10-20T01:06:34.707Z,94.80
2017-10-20T01:09:05.509Z,95.20
2017-10-20T01:11:36.425Z,95.50
2017-10-20T01:14:07.872Z,95.80
2017-10-20T01:16:39.384Z,97.50
2017-10-20T01:19:09.997Z,97.40
2017-10-20T01:21:40.836Z,97.20
2017-10-20T01:24:12.044Z,96.30
2017-10-20T01:26:43.578Z,96.80
2017-10-20T01:29:14.372Z,96.80
2017-10-20T01:31:45.420Z,97.00
2017-10-20T01:34:15.970Z,97.50
2017-10-20T01:36:46.831Z,96.90
2017-10-20T01:39:17.715Z,96.70
2017-10-20T01:41:48.470Z,96.70
2017-10-20T01:44:19.436Z,96.90
2017-10-20T01:46:50.157Z,96.60
2017-10-20T01:49:20.883Z,96.80
2017-10-20T01:51:51.411Z,97.40
2017-10-20T01:54:22.267Z,97.80
2017-10-20T01:56:53.488Z,97.80
2017-10-20T01:59:24.605Z,98.10
2017-10-20T02:01:55.762Z,98.00
2017-10-20T02:04:26.802Z,98.50
2017-10-20T02:06:57.450Z,98.70
2017-10-20T02:09:27.750Z,99.10
2017-10-20T02:11:58.738Z,99.00
2017-10-20T02:14:29.444Z,99.30
2017-10-20T02:17:00.386Z,99.90
2017-10-20T02:19:31.564Z,99.80
2017-10-20T02:22:02.239Z,99.30
2017-10-20T02:24:33.627Z,99.60
2017-10-20T02:27:04.518Z,99.90
2017-10-20T02:29:35.669Z,98.70
2017-10-20T02:32:06.517Z,99.00
2017-10-20T02:34:37.617Z,99.20
2017-10-20T02:37:08.551Z,99.10
2017-10-20T02:39:39.776Z,99.90
2017-10-20T02:42:10.784Z,99.90
2017-10-20T02:44:41.892Z,99.90
2017-10-20T02:47:12.566Z,99.70
2017-10-20T02:49:43.453Z,99.90
2017-10-20T02:52:13.869Z,99.00
2017-10-20T02:54:45.687Z,99.00
2017-10-20T02:57:16.620Z,99.00
2017-10-20T02:59:47.843Z,99.20
2017-10-20T03:02:18.506Z,99.50
2017-10-20T03:04:48.980Z,99.60
2017-10-20T03:07:19.326Z,99.80
2017-10-20T03:09:49.830Z,99.70
2017-10-20T03:12:21.356Z,99.20
2017-10-20T03:14:52.840Z,98.80
2017-10-20T03:17:23.389Z,99.10
2017-10-20T03:19:53.998Z,99.10
2017-10-20T03:22:24.436Z,98.90
2017-10-20T03:24:55.132Z,99.00
2017-10-20T03:27:25.761Z,98.60
2017-10-20T03:29:56.115Z,98.80
2017-10-20T03:32:28.034Z,98.40
2017-10-20T03:34:59.242Z,98.40
2017-10-20T03:37:30.223Z,98.30
2017-10-20T03:40:00.665Z,98.10
2017-10-20T03:42:32.004Z,98.40
2017-10-20T03:45:03.084Z,98.40
2017-10-20T03:47:34.651Z,98.80
2017-10-20T03:50:07.001Z,99.80
2017-10-20T03:52:37.934Z,99.90
2017-10-20T03:55:09.799Z,99.90
2017-10-20T03:57:40.325Z,99.90
2017-10-20T04:00:11.258Z,99.90
2017-10-20T04:02:42.217Z,99.90
2017-10-20T04:05:13.180Z,99.90
2017-10-20T04:07:44.268Z,99.90
2017-10-20T04:10:15.278Z,99.90
2017-10-20T04:12:46.412Z,99.90
2017-10-20T04:15:18.141Z,99.90
2017-10-20T04:17:49.398Z,99.90
2017-10-20T04:20:20.091Z,99.90
2017-10-20T04:22:51.588Z,99.90
2017-10-20T04:25:22.313Z,99.90
2017-10-20T04:27:53.205Z,99.90
2017-10-20T04:30:25.038Z,99.90
2017-10-20T04:32:55.758Z,99.90
2017-10-20T04:35:26.839Z,99.90
2017-10-20T04:37:58.511Z,99.90
2017-10-20T04:40:29.809Z,99.90
2017-10-20T04:43:00.505Z,99.90
2017-10-20T04:45:31.146Z,99.90
2017-10-20T04:48:02.191Z,99.90
2017-10-20T04:50:33.152Z,99.90
2017-10-20T04:53:03.481Z,99.90
2017-10-20T04:55:34.236Z,99.90
2017-10-20T04:58:05.914Z,99.90
2017-10-20T05:00:37.052Z,99.90
2017-10-20T05:03:07.884Z,99.90
2017-10-20T05:05:38.638Z,99.90
2017-10-20T05:08:09.705Z,99.90
2017-10-20T05:10:40.253Z,99.90
2017-10-20T05:13:11.212Z,99.90
2017-10-20T05:15:42.689Z,99.90
2017-10-20T05:18:13.509Z,99.90
2017-10-20T05:20:44.150Z,99.90
2017-10-20T05:23:14.797Z,99.70
2017-10-20T05:25:45.561Z,99.60
2017-10-20T05:28:16.473Z,99.70
2017-10-20T05:30:47.505Z,99.50
2017-10-20T05:33:18.365Z,99.30
2017-10-20T05:35:49.251Z,99.20
2017-10-20T05:38:20.557Z,99.20
2017-10-20T05:40:51.396Z,99.10
2017-10-20T05:43:22.264Z,99.10
2017-10-20T05:45:54.261Z,99.10
2017-10-20T05:48:25.223Z,99.10
2017-10-20T05:50:55.764Z,99.10
2017-10-20T05:53:26.530Z,99.10
2017-10-20T05:55:58.076Z,99.00
2017-10-20T05:58:29.542Z,98.90
2017-10-20T06:01:01.637Z,98.90
2017-10-20T06:03:32.353Z,98.90
2017-10-20T06:06:03.344Z,98.90
2017-10-20T06:08:34.353Z,98.90
2017-10-20T06:11:05.414Z,99.10
2017-10-20T06:13:36.158Z,98.90
2017-10-20T06:16:07.252Z,98.80
2017-10-20T06:18:38.022Z,99.20
2017-10-20T06:21:08.980Z,99.00
2017-10-20T06:23:39.667Z,98.90
2017-10-20T06:26:10.538Z,98.60
2017-10-20T06:28:42.120Z,98.80
2017-10-20T06:31:13.518Z,98.70
2017-10-20T06:33:44.341Z,98.70
2017-10-20T06:36:15.470Z,98.80
2017-10-20T06:38:46.794Z,98.50
2017-10-20T06:41:18.876Z,98.60
2017-10-20T06:43:49.829Z,98.50
2017-10-20T06:46:21.437Z,98.20
2017-10-20T06:48:52.624Z,98.30
2017-10-20T06:51:22.973Z,98.40
2017-10-20T06:53:55.265Z,97.90
2017-10-20T06:56:26.378Z,97.90
2017-10-20T06:58:56.919Z,97.60
2017-10-20T07:01:27.533Z,97.60
2017-10-20T07:03:58.218Z,97.60
2017-10-20T07:06:29.715Z,97.70
2017-10-20T07:09:02.680Z,97.80
2017-10-20T07:11:34.657Z,97.90
2017-10-20T07:14:05.469Z,97.90
2017-10-20T07:16:36.550Z,98.10
2017-10-20T07:19:10.097Z,98.10
2017-10-20T07:21:41.198Z,98.20
2017-10-20T07:24:11.609Z,98.10
2017-10-20T07:26:43.412Z,98.10
2017-10-20T07:29:14.335Z,98.10
2017-10-20T07:31:46.028Z,98.30
2017-10-20T07:34:16.582Z,98.20
2017-10-20T07:36:47.903Z,98.70
2017-10-20T07:39:18.975Z,98.60
2017-10-20T07:41:50.175Z,99.10
2017-10-20T07:44:20.731Z,99.50
2017-10-20T07:46:52.684Z,99.90
2017-10-20T07:49:24.081Z,99.90
2017-10-20T07:51:55.467Z,99.90
2017-10-20T07:54:27.197Z,99.90
2017-10-20T07:56:58.156Z,99.90
2017-10-20T07:59:29.688Z,99.90
2017-10-20T08:02:00.328Z,99.90
2017-10-20T08:04:30.743Z,99.90
2017-10-20T08:07:01.438Z,99.90
2017-10-20T08:09:32.697Z,99.90
2017-10-20T08:12:03.086Z,99.90
2017-10-20T08:14:34.375Z,99.90
2017-10-20T08:17:05.204Z,99.90
2017-10-20T08:19:35.544Z,99.90
2017-10-20T08:22:06.230Z,99.90
2017-10-20T08:24:37.685Z,99.90
2017-10-20T08:27:09.292Z,99.90
2017-10-20T08:29:40.917Z,99.90
2017-10-20T08:32:11.548Z,99.90
2017-10-20T08:34:42.581Z,99.90
2017-10-20T08:37:13.306Z,99.90
2017-10-20T08:39:44.129Z,99.70
2017-10-20T08:42:14.904Z,99.90
2017-10-20T08:44:45.638Z,99.90
2017-10-20T08:47:16.068Z,99.50
2017-10-20T08:49:47.846Z,98.50
2017-10-20T08:52:18.224Z,96.90
2017-10-20T08:54:48.984Z,95.40
2017-10-20T08:57:20.009Z,95.30
2017-10-20T08:59:50.879Z,95.50
2017-10-20T09:02:22.973Z,94.00
2017-10-20T09:04:54.157Z,93.90
2017-10-20T09:07:25.077Z,92.80
2017-10-20T09:09:56.745Z,92.50
2017-10-20T09:12:27.883Z,92.60
2017-10-20T09:14:58.815Z,91.90
2017-10-20T09:17:30.088Z,91.60
2017-10-20T09:20:00.666Z,91.00
2017-10-20T09:22:31.470Z,90.70
2017-10-20T09:25:02.862Z,90.80
2017-10-20T09:27:34.629Z,87.60
2017-10-20T09:30:07.195Z,89.60
2017-10-20T09:32:38.567Z,89.40
2017-10-20T09:35:10.488Z,88.90
2017-10-20T09:42:48.783Z,89.20
2017-10-20T09:45:19.887Z,89.60
2017-10-20T09:47:51.076Z,89.80
2017-10-20T09:50:22.318Z,90.00
2017-10-20T09:52:52.854Z,90.50
2017-10-20T09:55:23.589Z,89.20
2017-10-20T09:57:54.198Z,88.30
2017-10-20T10:00:24.813Z,86.90
2017-10-20T10:02:55.798Z,81.50
2017-10-20T10:05:26.134Z,81.50
2017-10-20T10:07:56.965Z,81.10
2017-10-20T10:10:28.406Z,78.20
2017-10-20T10:12:58.995Z,78.00
2017-10-20T10:15:29.301Z,77.30
2017-10-20T10:18:00.674Z,76.40
2017-10-20T10:20:31.992Z,77.60
2017-10-20T10:23:02.591Z,77.50
2017-10-20T10:25:34.631Z,79.90
2017-10-20T10:28:06.254Z,79.90
2017-10-20T10:30:38.592Z,81.20
2017-10-20T10:33:09.948Z,78.60
2017-10-20T10:35:41.834Z,78.70
2017-10-20T10:38:12.607Z,78.60
2017-10-20T10:40:43.327Z,75.20
2017-10-20T10:43:14.242Z,76.70
2017-10-20T10:45:45.996Z,75.70
2017-10-20T10:48:17.526Z,75.40
2017-10-20T10:50:48.174Z,75.30
2017-10-20T10:53:18.743Z,74.60
2017-10-20T10:55:49.819Z,73.50
2017-10-20T10:58:20.703Z,72.60
2017-10-20T11:00:51.029Z,74.10
2017-10-20T11:03:22.005Z,72.50
2017-10-20T11:06:02.496Z,70.80
2017-10-20T11:08:42.812Z,72.40
2017-10-20T11:11:23.100Z,72.50
2017-10-20T11:13:53.936Z,71.30
2017-10-20T11:16:25.373Z,72.10
2017-10-20T11:18:56.683Z,71.40
2017-10-20T11:21:27.782Z,69.80
2017-10-20T11:23:59.513Z,66.40
2017-10-20T11:26:30.205Z,66.40
2017-10-20T11:29:01.369Z,65.30
2017-10-20T11:31:32.013Z,65.30
2017-10-20T11:34:02.819Z,66.70
2017-10-20T11:36:33.885Z,69.00
2017-10-20T11:39:04.668Z,70.80
2017-10-20T11:41:35.143Z,71.30
2017-10-20T11:44:05.861Z,70.60
2017-10-20T11:46:37.320Z,69.60
2017-10-20T11:49:08.089Z,68.00
2017-10-20T11:51:40.926Z,65.30
2017-10-20T11:54:13.184Z,65.90
2017-10-20T11:56:44.861Z,66.30
2017-10-20T11:59:16.546Z,67.60
2017-10-20T12:01:47.726Z,68.10
2017-10-20T12:04:18.527Z,68.60
2017-10-20T12:06:49.044Z,67.90
2017-10-20T12:09:19.863Z,68.40
2017-10-20T12:11:51.865Z,70.50
2017-10-20T12:14:22.375Z,71.10
2017-10-20T12:16:52.587Z,72.20
2017-10-20T12:19:24.100Z,74.00
2017-10-20T12:21:55.339Z,75.20
2017-10-20T12:24:26.394Z,74.70
2017-10-20T12:26:57.803Z,74.90
2017-10-20T12:29:28.180Z,74.90
2017-10-20T12:31:58.733Z,74.90
2017-10-20T12:34:29.729Z,74.40
2017-10-20T12:37:00.438Z,74.10
2017-10-20T12:39:30.838Z,74.60
2017-10-20T12:42:01.695Z,74.40
2017-10-20T12:44:33.973Z,73.90
2017-10-20T12:47:05.575Z,74.50
2017-10-20T12:49:37.213Z,74.00
2017-10-20T12:52:07.796Z,73.40
2017-10-20T12:57:11.501Z,71.90
2017-10-20T12:59:42.556Z,72.90
2017-10-20T13:02:14.080Z,74.50
2017-10-20T13:04:44.660Z,75.10
2017-10-20T13:07:15.776Z,76.20
2017-10-20T13:09:47.576Z,76.40
2017-10-20T13:12:18.629Z,76.60
2017-10-20T13:14:48.932Z,76.40
2017-10-20T13:17:19.505Z,77.10
2017-10-20T13:19:50.848Z,77.90
2017-10-20T13:22:21.398Z,77.30
2017-10-20T13:24:51.683Z,77.50
2017-10-20T13:27:22.361Z,77.90
2017-10-20T13:29:54.130Z,78.60
2017-10-20T13:32:26.959Z,79.40
2017-10-20T13:34:57.521Z,80.00
2017-10-20T13:37:28.065Z,80.30
2017-10-20T13:39:58.552Z,81.00
2017-10-20T13:42:29.179Z,82.70
2017-10-20T13:45:00.059Z,81.40
2017-10-20T13:47:32.260Z,78.40
2017-10-20T13:50:03.390Z,77.90
2017-10-20T13:52:34.787Z,80.10
2017-10-20T13:55:05.452Z,79.50
2017-10-20T13:57:37.521Z,82.10
2017-10-20T14:00:08.258Z,82.70
2017-10-20T14:05:11.149Z,83.40
2017-10-20T14:07:41.765Z,83.70
2017-10-20T14:10:12.353Z,83.10
2017-10-20T14:12:43.417Z,82.00
2017-10-20T14:15:14.055Z,81.80
2017-10-20T14:17:44.290Z,82.10
2017-10-20T14:20:14.856Z,81.30
2017-10-20T14:22:46.989Z,79.80
2017-10-20T14:25:18.030Z,81.10
2017-10-20T14:27:48.529Z,81.70
2017-10-20T14:30:20.351Z,83.30
2017-10-20T14:32:50.849Z,83.80
2017-10-20T14:35:21.690Z,85.60
2017-10-20T14:37:52.520Z,85.20
2017-10-20T14:40:24.332Z,85.50
2017-10-20T14:42:54.775Z,85.40
2017-10-20T14:45:26.351Z,84.80
2017-10-20T14:47:57.177Z,85.40
2017-10-20T14:50:28.992Z,85.80
2017-10-20T14:55:33.215Z,86.00
2017-10-20T14:58:04.497Z,86.60
2017-10-20T15:00:34.683Z,86.60
2017-10-20T15:03:05.299Z,86.80
2017-10-20T15:05:35.826Z,86.50
2017-10-20T15:08:07.127Z,86.50
2017-10-20T15:10:37.811Z,86.50
2017-10-20T15:13:09.222Z,85.80
2017-10-20T15:15:40.573Z,86.20
2017-10-20T15:18:11.256Z,86.50
2017-10-20T15:20:42.908Z,85.90
2017-10-20T15:23:13.617Z,86.40
2017-10-20T15:25:44.247Z,86.60
2017-10-20T15:28:15.622Z,85.40
2017-10-20T15:30:46.411Z,85.20
2017-10-20T15:33:16.916Z,86.20
2017-10-20T15:35:47.458Z,86.60
2017-10-20T15:38:17.990Z,86.60
2017-10-20T15:40:48.730Z,86.40
2017-10-20T15:43:19.023Z,86.60
2017-10-20T15:45:51.181Z,86.50
2017-10-20T15:48:21.893Z,86.40
2017-10-20T15:50:52.527Z,86.60
2017-10-20T15:53:23.213Z,87.00
2017-10-20T15:55:53.966Z,87.00
2017-10-20T15:58:25.434Z,85.40
2017-10-20T16:00:55.953Z,85.40
2017-10-20T16:03:26.631Z,84.20
2017-10-20T16:05:58.106Z,83.30
2017-10-20T16:08:28.568Z,83.30
2017-10-20T16:10:59.728Z,83.30
2017-10-20T16:13:30.716Z,83.30
2017-10-20T16:16:01.162Z,83.30
2017-10-20T16:18:31.859Z,83.30
2017-10-20T16:21:01.983Z,83.20
2017-10-20T16:23:33.791Z,83.50
2017-10-20T16:26:04.477Z,83.50
2017-10-20T16:28:34.893Z,83.60
2017-10-20T16:31:05.510Z,83.10
2017-10-20T16:33:35.961Z,83.30
2017-10-20T16:36:06.406Z,83.00
2017-10-20T16:38:36.658Z,83.20
2017-10-20T16:41:07.552Z,83.40
2017-10-20T16:43:38.052Z,82.70
2017-10-20T16:46:10.192Z,83.60
2017-10-20T16:48:40.648Z,83.50
2017-10-20T16:51:11.210Z,83.60
2017-10-20T16:53:43.903Z,82.50
2017-10-20T16:56:14.777Z,83.00
2017-10-20T16:58:45.187Z,83.30
2017-10-20T17:01:15.640Z,83.20
2017-10-20T17:03:47.321Z,83.10
2017-10-20T17:06:18.119Z,83.10
2017-10-20T17:08:48.828Z,83.30
2017-10-20T17:11:19.842Z,83.50
2017-10-20T17:13:51.680Z,83.40
2017-10-20T17:16:22.683Z,83.40
2017-10-20T17:18:55.144Z,83.30
2017-10-20T17:21:25.741Z,83.90
2017-10-20T17:23:56.175Z,83.80
2017-10-20T17:26:26.352Z,84.60
2017-10-20T17:28:57.074Z,83.90
2017-10-20T17:31:27.875Z,84.20
2017-10-20T17:33:58.368Z,84.20
2017-10-20T17:36:29.432Z,83.90
2017-10-20T17:38:59.655Z,84.00
2017-10-20T17:41:29.844Z,84.20
2017-10-20T17:44:01.441Z,83.70
2017-10-20T17:46:32.311Z,83.70
2017-10-20T17:49:03.665Z,84.20
2017-10-20T17:51:35.071Z,84.60
2017-10-20T17:54:06.624Z,84.70
2017-10-20T17:56:37.861Z,84.40
2017-10-20T17:59:08.553Z,84.40
2017-10-20T18:01:39.792Z,83.70
2017-10-20T18:04:11.171Z,84.00
2017-10-20T18:06:41.752Z,84.00
2017-10-20T18:09:12.328Z,84.20
2017-10-20T18:11:43.372Z,84.70
2017-10-20T18:14:14.732Z,84.40
2017-10-20T18:16:45.249Z,84.40
2017-10-20T18:19:15.522Z,84.50
2017-10-20T18:21:46.817Z,84.60
2017-10-20T18:24:18.102Z,84.70
2017-10-20T18:26:48.848Z,84.60
2017-10-20T18:29:19.203Z,84.60
2017-10-20T18:31:50.041Z,84.20
2017-10-20T18:34:20.573Z,84.00
2017-10-20T18:36:52.880Z,84.10
2017-10-20T18:39:23.378Z,84.10
2017-10-20T18:41:53.972Z,83.70
2017-10-20T18:44:24.525Z,83.70
2017-10-20T18:46:56.241Z,83.10
2017-10-20T18:49:26.585Z,83.10
2017-10-20T18:51:57.192Z,82.80
2017-10-20T18:54:27.893Z,82.40
2017-10-20T18:56:58.286Z,82.80
2017-10-20T18:59:29.408Z,82.90
2017-10-20T19:02:00.995Z,82.90
2017-10-20T19:04:32.140Z,82.80
2017-10-20T19:07:02.775Z,82.40
2017-10-20T19:09:33.257Z,81.90
2017-10-20T19:12:04.687Z,81.80
2017-10-20T19:14:35.031Z,81.80
2017-10-20T19:17:05.622Z,82.00
2017-10-20T19:19:36.903Z,81.70
2017-10-20T19:22:08.473Z,81.90
2017-10-20T19:24:38.934Z,82.10
2017-10-20T19:27:09.367Z,81.90
2017-10-20T19:29:40.143Z,82.00
2017-10-20T19:32:10.585Z,82.20
2017-10-20T19:34:40.886Z,82.20
2017-10-20T19:37:11.330Z,82.40
2017-10-20T19:39:41.773Z,82.60
2017-10-20T19:42:13.025Z,82.90
2017-10-20T19:44:43.547Z,83.00
2017-10-20T19:47:14.953Z,83.30
2017-10-20T19:49:45.868Z,83.30
2017-10-20T19:52:16.316Z,83.30
2017-10-20T19:54:46.716Z,83.70
2017-10-20T19:57:17.493Z,83.90
2017-10-20T19:59:48.821Z,84.00
2017-10-20T20:02:19.090Z,84.20
2017-10-20T20:04:49.974Z,84.30
2017-10-20T20:07:20.812Z,84.30
2017-10-20T20:09:51.430Z,84.40
2017-10-20T20:12:22.583Z,84.80
2017-10-20T20:14:53.973Z,84.70
2017-10-20T20:17:24.729Z,84.80
2017-10-20T20:19:56.614Z,85.30
2017-10-20T20:22:27.135Z,85.20
2017-10-20T20:24:57.905Z,85.30
2017-10-20T20:27:29.149Z,85.60
2017-10-20T20:30:01.084Z,86.00
2017-10-20T20:32:48.101Z,86.00
2017-10-20T20:35:18.788Z,86.00
2017-10-20T20:37:49.309Z,86.30
2017-10-20T20:40:20.135Z,86.60
2017-10-20T20:42:50.917Z,86.70
2017-10-20T20:45:22.405Z,87.40
2017-10-20T20:47:54.023Z,87.40
2017-10-20T20:50:24.490Z,87.90
2017-10-20T20:52:56.015Z,88.00
2017-10-20T20:55:27.025Z,88.30
2017-10-20T20:57:57.365Z,88.30
2017-10-20T21:00:29.334Z,89.00
2017-10-20T21:03:01.170Z,89.00
2017-10-20T21:05:32.298Z,89.70
2017-10-20T21:08:03.398Z,89.90
2017-10-20T21:10:33.617Z,89.90
2017-10-20T21:13:04.115Z,90.00
2017-10-20T21:15:35.572Z,90.20
2017-10-20T21:18:06.054Z,90.20
2017-10-20T21:20:36.721Z,90.20
2017-10-20T21:23:08.357Z,90.20
2017-10-20T21:25:38.757Z,90.40
2017-10-20T21:28:09.189Z,90.50
2017-10-20T21:30:39.713Z,90.50
2017-10-20T21:33:10.113Z,90.90
2017-10-20T21:35:40.134Z,90.70
2017-10-20T21:38:10.717Z,90.60
2017-10-20T21:40:43.132Z,90.70
2017-10-20T21:43:13.283Z,90.70
2017-10-20T21:45:43.680Z,90.90
2017-10-20T21:48:14.069Z,90.90
2017-10-20T21:50:46.242Z,91.10
2017-10-20T21:53:17.318Z,91.10
2017-10-20T21:55:48.876Z,91.40
2017-10-20T21:58:19.466Z,91.40
2017-10-20T22:00:50.340Z,91.50
2017-10-20T22:03:20.846Z,91.70
2017-10-20T22:05:52.084Z,91.90
2017-10-20T22:08:22.551Z,91.90
2017-10-20T22:10:52.822Z,92.10
2017-10-20T22:13:23.518Z,92.20
2017-10-20T22:15:54.173Z,92.30
2017-10-20T22:18:25.639Z,92.60
2017-10-20T22:20:56.263Z,92.60
2017-10-20T22:23:26.705Z,92.80
2017-10-20T22:25:57.026Z,93.10
2017-10-20T22:28:28.365Z,93.00
2017-10-20T22:30:59.044Z,93.00
2017-10-20T22:33:29.639Z,93.00
2017-10-20T22:36:00.619Z,93.10
2017-10-20T22:38:31.052Z,93.10
2017-10-20T22:41:02.426Z,93.10
2017-10-20T22:43:32.726Z,93.20
2017-10-20T22:46:03.022Z,93.30
2017-10-20T22:48:34.507Z,93.40
2017-10-20T22:51:05.791Z,93.40
2017-10-20T22:53:35.970Z,93.40
2017-10-20T22:56:06.283Z,93.40
2017-10-20T22:58:38.537Z,93.40
2017-10-20T23:01:09.069Z,93.30
2017-10-20T23:03:40.019Z,93.30
2017-10-20T23:06:10.722Z,93.20
2017-10-20T23:08:41.861Z,93.20
2017-10-20T23:11:12.103Z,93.20
2017-10-20T23:13:42.459Z,93.20
2017-10-20T23:16:13.576Z,93.20
2017-10-20T23:18:43.529Z,93.20
2017-10-20T23:21:14.903Z,93.10
2017-10-20T23:23:46.664Z,93.10
2017-10-20T23:26:17.983Z,93.10
2017-10-20T23:28:48.432Z,93.10
2017-10-20T23:31:20.204Z,92.90
2017-10-20T23:33:51.574Z,93.00
2017-10-20T23:36:21.895Z,92.90
2017-10-20T23:38:52.416Z,92.90
2017-10-20T23:41:22.901Z,92.90
2017-10-20T23:43:53.328Z,92.90
2017-10-20T23:46:24.995Z,93.10
2017-10-20T23:48:55.445Z,93.10
2017-10-20T23:51:26.049Z,93.30
2017-10-20T23:53:57.757Z,93.40
2017-10-20T23:56:28.031Z,93.40
2017-10-20T23:58:58.965Z,93.40
